Terminal Aerodrome Forecast
Issued by NWS

Current Version | Previous Version | Text Only | Print | Product List | Glossary On
Versions: 1 2 3 4 5 6 7 8 9 10 11 12 13 14
172
FTUS43 KSGF 221720
TAFBBG
TAF
KBBG 221720Z 2218/2318 16006KT P6SM FEW040
     FM230000 14004KT P6SM SKC
     FM231700 12004KT P6SM FEW040=

USA.gov is the U.S. government's official web portal to all federal, state and local government web resources and services.